< Typhoon 200318 2003 Season Typhoon 200320 >
Typhoon 200319 (MELOR)
General InformationTrack Information on Google MapsDetailed Wind InformationAccess Analytics MapList of All Images || NewsDisaster Info.WeblogResourceGoogle EarthGE AnimationAtom FeedGeoJSON
Detalied Best Track (Time Zone = UTC)
Year Month Day Hour Lat. Long. Pressure (hPa) Wind (kt) Class Image Chart
2003 10 29 00 12.7 132.3 1006 0 2 Image Chart
2003 10 29 06 12.4 131.5 1006 0 2 Image Chart
2003 10 29 12 12.6 130.7 1006 0 2 Image Chart
2003 10 29 18 12.7 130.3 1004 0 2 Image Chart
2003 10 30 00 12.6 129.7 1002 0 2 Image Chart
2003 10 30 06 12.9 129.1 1000 0 2 Image Chart
2003 10 30 12 13.1 128.1 996 35 3 Image Chart
2003 10 30 18 13.8 127.3 996 35 3 Image Chart
2003 10 31 00 14.5 126.2 990 40 3 Image Chart
2003 10 31 06 15.3 124.8 985 45 3 Image Chart
2003 10 31 12 15.6 124.0 985 45 3 Image Chart
2003 10 31 18 16.3 122.9 980 50 4 Image Chart
2003 11 1 00 16.9 122.6 980 50 4 Image Chart
2003 11 1 06 17.5 121.8 990 40 3 Image Chart
2003 11 1 12 18.4 121.2 996 35 3 Image Chart
2003 11 1 18 19.5 121.0 992 45 3 Image Chart
2003 11 2 00 20.1 120.8 990 45 3 Image Chart
2003 11 2 06 20.6 120.7 990 45 3 Image Chart
2003 11 2 12 21.4 120.9 990 40 3 Image Chart
2003 11 2 18 22.0 121.3 992 35 3 Image Chart
2003 11 3 00 22.8 122.5 996 35 3 Image Chart
2003 11 3 06 23.2 122.9 998 35 3 Image Chart
2003 11 3 09 23.5 123.3 998 35 3 Image Chart
2003 11 3 12 23.6 123.4 998 35 3 Image Chart
2003 11 3 18 23.5 123.5 1004 0 2 Image Chart
2003 11 4 00 23.3 123.5 1004 0 2 Image Chart
2003 11 4 06 23.5 123.2 1006 0 2 Image Chart
2003 11 4 12 24.3 122.7 1008 0 2 Image Chart
2003 11 4 18 25.5 123.3 1008 0 2 Image Chart
2003 11 5 00 26.5 123.5 1010 0 2 Image Chart
2003 11 5 06 28.5 124.9 1010 0 2 Image Chart
2003 11 5 12 29.8 127.0 1012 0 2 Image Chart
2003 11 5 18 30.6 128.7 1012 0 6 Image Chart
2003 11 6 00 30.8 130.8 1012 0 6 Image Chart
Japan Meteorological Agency Best Track Data | Correction Date : 2004-02-17
< Typhoon 200318 2003 Season Typhoon 200320 >

Help